Protection Island, Washington
Current Conditions -  °F | °C
As of 5:56 AM on Thursday 30 Oct 2014 (Local Time) from KNUW Reporting Station
Overcast Overcast  
Wind Chill: 52°   Ceiling: 10000
Heat Index: 52°   Visibility: 10mi
Dew Point: 47°   Wind: 8mph
Humidity: 83%   Direction: 130°SE
Pressure: 29.9"   Gusts: NA
Location:  48.026°N, 122.859°W
Report Text: KNUW 301256Z 13007KT 10SM FEW006 FEW055 BKN100 OVC250 11/08 A2990 RMK AO2 SLP129 T01110083 $
Loading
Personal Weather Stations






























Interactive Weather Map
Tropical Storm Tracking
New forecast layout! Learn more

10-Day Weather Forecast

Advertisements
Track Severe Weather on mobile